sensor_id;sensor_type;location;lat;lon;timestamp;temperature;humidity
68485;DHT22;55472;50.060;21.960;2023-08-07T00:01:01;16.00;89.20
68485;DHT22;55472;50.060;21.960;2023-08-07T00:03:33;16.00;89.30
68485;DHT22;55472;50.060;21.960;2023-08-07T00:06:01;16.00;89.10
68485;DHT22;55472;50.060;21.960;2023-08-07T00:08:27;16.00;88.90
68485;DHT22;55472;50.060;21.960;2023-08-07T00:11:07;16.00;88.80
68485;DHT22;55472;50.060;21.960;2023-08-07T00:13:34;16.00;89.20
68485;DHT22;55472;50.060;21.960;2023-08-07T00:16:00;15.90;89.20
68485;DHT22;55472;50.060;21.960;2023-08-07T00:18:28;15.90;89.10
68485;DHT22;55472;50.060;21.960;2023-08-07T00:20:55;15.90;89.20
68485;DHT22;55472;50.060;21.960;2023-08-07T00:23:21;15.90;89.10
68485;DHT22;55472;50.060;21.960;2023-08-07T00:25:47;15.90;89.30
68485;DHT22;55472;50.060;21.960;2023-08-07T00:28:13;15.90;89.20
68485;DHT22;55472;50.060;21.960;2023-08-07T00:30:39;15.90;89.10
68485;DHT22;55472;50.060;21.960;2023-08-07T00:33:05;15.80;88.90
68485;DHT22;55472;50.060;21.960;2023-08-07T00:35:32;15.80;89.10
68485;DHT22;55472;50.060;21.960;2023-08-07T00:37:58;15.80;89.20
68485;DHT22;55472;50.060;21.960;2023-08-07T00:40:24;15.80;89.10
68485;DHT22;55472;50.060;21.960;2023-08-07T00:42:50;15.80;89.30
68485;DHT22;55472;50.060;21.960;2023-08-07T00:45:16;15.80;88.90
68485;DHT22;55472;50.060;21.960;2023-08-07T00:47:43;15.70;88.90
68485;DHT22;55472;50.060;21.960;2023-08-07T00:50:10;15.70;89.00
68485;DHT22;55472;50.060;21.960;2023-08-07T00:52:37;15.70;88.70
68485;DHT22;55472;50.060;21.960;2023-08-07T00:55:04;15.70;88.80
68485;DHT22;55472;50.060;21.960;2023-08-07T00:57:30;15.70;88.90
68485;DHT22;55472;50.060;21.960;2023-08-07T00:59:58;15.60;89.10
68485;DHT22;55472;50.060;21.960;2023-08-07T01:02:24;15.60;88.90
68485;DHT22;55472;50.060;21.960;2023-08-07T01:04:51;15.60;89.00
68485;DHT22;55472;50.060;21.960;2023-08-07T01:07:17;15.60;88.90
68485;DHT22;55472;50.060;21.960;2023-08-07T01:09:43;15.60;88.50
68485;DHT22;55472;50.060;21.960;2023-08-07T01:12:29;15.60;88.70
68485;DHT22;55472;50.060;21.960;2023-08-07T01:15:19;15.60;88.80
68485;DHT22;55472;50.060;21.960;2023-08-07T01:17:48;15.60;89.10
68485;DHT22;55472;50.060;21.960;2023-08-07T01:20:16;15.60;89.00
68485;DHT22;55472;50.060;21.960;2023-08-07T01:22:42;15.60;89.10
68485;DHT22;55472;50.060;21.960;2023-08-07T01:25:08;15.60;88.80
68485;DHT22;55472;50.060;21.960;2023-08-07T01:27:46;15.60;88.80
68485;DHT22;55472;50.060;21.960;2023-08-07T01:35:45;15.60;88.90
68485;DHT22;55472;50.060;21.960;2023-08-07T01:38:13;15.60;89.10
68485;DHT22;55472;50.060;21.960;2023-08-07T01:40:42;15.60;89.10
68485;DHT22;55472;50.060;21.960;2023-08-07T01:43:08;15.70;88.90
68485;DHT22;55472;50.060;21.960;2023-08-07T01:45:35;15.70;89.10
68485;DHT22;55472;50.060;21.960;2023-08-07T01:48:01;15.60;89.20
68485;DHT22;55472;50.060;21.960;2023-08-07T01:50:27;15.60;88.90
68485;DHT22;55472;50.060;21.960;2023-08-07T01:52:54;15.60;89.00
68485;DHT22;55472;50.060;21.960;2023-08-07T01:55:22;15.60;89.20
68485;DHT22;55472;50.060;21.960;2023-08-07T01:57:48;15.50;89.50
68485;DHT22;55472;50.060;21.960;2023-08-07T02:00:14;15.50;89.60
68485;DHT22;55472;50.060;21.960;2023-08-07T02:02:40;15.50;89.50
68485;DHT22;55472;50.060;21.960;2023-08-07T02:05:07;15.50;89.50
68485;DHT22;55472;50.060;21.960;2023-08-07T02:07:33;15.50;89.60
68485;DHT22;55472;50.060;21.960;2023-08-07T02:09:59;15.40;89.90
68485;DHT22;55472;50.060;21.960;2023-08-07T02:12:25;15.40;89.80
68485;DHT22;55472;50.060;21.960;2023-08-07T02:14:53;15.40;90.00
68485;DHT22;55472;50.060;21.960;2023-08-07T02:17:21;15.40;90.10
68485;DHT22;55472;50.060;21.960;2023-08-07T02:19:50;15.30;90.20
68485;DHT22;55472;50.060;21.960;2023-08-07T02:22:16;15.30;90.30
68485;DHT22;55472;50.060;21.960;2023-08-07T02:24:43;15.30;90.60
68485;DHT22;55472;50.060;21.960;2023-08-07T02:27:09;15.20;90.50
68485;DHT22;55472;50.060;21.960;2023-08-07T02:29:35;15.20;90.70
68485;DHT22;55472;50.060;21.960;2023-08-07T02:32:02;15.20;90.80
68485;DHT22;55472;50.060;21.960;2023-08-07T02:34:29;15.20;90.80
68485;DHT22;55472;50.060;21.960;2023-08-07T02:36:56;15.20;90.60
68485;DHT22;55472;50.060;21.960;2023-08-07T02:39:22;15.20;90.80
68485;DHT22;55472;50.060;21.960;2023-08-07T02:41:48;15.10;90.90
68485;DHT22;55472;50.060;21.960;2023-08-07T02:44:15;15.10;90.70
68485;DHT22;55472;50.060;21.960;2023-08-07T02:46:43;15.10;91.00
68485;DHT22;55472;50.060;21.960;2023-08-07T02:49:09;15.10;91.10
68485;DHT22;55472;50.060;21.960;2023-08-07T02:51:35;15.00;91.30
68485;DHT22;55472;50.060;21.960;2023-08-07T02:54:02;15.00;91.50
68485;DHT22;55472;50.060;21.960;2023-08-07T02:56:28;15.00;91.70
68485;DHT22;55472;50.060;21.960;2023-08-07T02:58:54;15.00;91.70
68485;DHT22;55472;50.060;21.960;2023-08-07T03:01:20;14.90;91.90
68485;DHT22;55472;50.060;21.960;2023-08-07T03:03:47;14.90;92.10
68485;DHT22;55472;50.060;21.960;2023-08-07T03:06:13;14.90;92.50
68485;DHT22;55472;50.060;21.960;2023-08-07T03:08:39;14.90;92.40
68485;DHT22;55472;50.060;21.960;2023-08-07T03:11:05;14.80;92.60
68485;DHT22;55472;50.060;21.960;2023-08-07T03:13:32;14.80;92.80
68485;DHT22;55472;50.060;21.960;2023-08-07T03:16:02;14.80;93.10
68485;DHT22;55472;50.060;21.960;2023-08-07T03:18:30;14.70;93.50
68485;DHT22;55472;50.060;21.960;2023-08-07T03:20:57;14.70;93.50
68485;DHT22;55472;50.060;21.960;2023-08-07T03:23:24;14.70;93.40
68485;DHT22;55472;50.060;21.960;2023-08-07T03:26:00;14.70;93.50
68485;DHT22;55472;50.060;21.960;2023-08-07T03:28:27;14.70;93.40
68485;DHT22;55472;50.060;21.960;2023-08-07T03:30:53;14.70;93.40
68485;DHT22;55472;50.060;21.960;2023-08-07T03:33:19;14.70;93.40
68485;DHT22;55472;50.060;21.960;2023-08-07T03:35:45;14.70;93.50
68485;DHT22;55472;50.060;21.960;2023-08-07T03:38:12;14.70;93.50
68485;DHT22;55472;50.060;21.960;2023-08-07T03:40:38;14.70;93.60
68485;DHT22;55472;50.060;21.960;2023-08-07T03:43:04;14.70;93.70
68485;DHT22;55472;50.060;21.960;2023-08-07T03:45:30;14.70;93.60
68485;DHT22;55472;50.060;21.960;2023-08-07T03:47:56;14.70;93.60
68485;DHT22;55472;50.060;21.960;2023-08-07T03:50:22;14.80;93.60
68485;DHT22;55472;50.060;21.960;2023-08-07T03:52:49;14.80;93.40
68485;DHT22;55472;50.060;21.960;2023-08-07T03:55:15;14.80;93.40
68485;DHT22;55472;50.060;21.960;2023-08-07T03:57:41;14.80;93.20
68485;DHT22;55472;50.060;21.960;2023-08-07T04:00:07;14.90;93.10
68485;DHT22;55472;50.060;21.960;2023-08-07T04:02:34;14.90;92.80
68485;DHT22;55472;50.060;21.960;2023-08-07T04:05:00;14.90;92.80
68485;DHT22;55472;50.060;21.960;2023-08-07T04:07:27;14.90;92.50
68485;DHT22;55472;50.060;21.960;2023-08-07T04:09:53;15.00;92.60
68485;DHT22;55472;50.060;21.960;2023-08-07T04:12:19;15.00;92.50
68485;DHT22;55472;50.060;21.960;2023-08-07T04:14:45;15.00;92.30
68485;DHT22;55472;50.060;21.960;2023-08-07T04:17:12;15.10;92.20
68485;DHT22;55472;50.060;21.960;2023-08-07T04:19:37;15.10;92.30
68485;DHT22;55472;50.060;21.960;2023-08-07T04:22:04;15.10;91.30
68485;DHT22;55472;50.060;21.960;2023-08-07T04:24:30;15.10;91.50
68485;DHT22;55472;50.060;21.960;2023-08-07T04:26:56;15.10;91.50
68485;DHT22;55472;50.060;21.960;2023-08-07T04:29:24;15.20;91.50
68485;DHT22;55472;50.060;21.960;2023-08-07T04:31:50;15.10;91.40
68485;DHT22;55472;50.060;21.960;2023-08-07T04:34:16;15.10;91.20
68485;DHT22;55472;50.060;21.960;2023-08-07T04:36:42;15.10;91.60
68485;DHT22;55472;50.060;21.960;2023-08-07T04:39:10;15.10;91.80
68485;DHT22;55472;50.060;21.960;2023-08-07T04:41:39;15.10;91.70
68485;DHT22;55472;50.060;21.960;2023-08-07T04:44:05;15.10;91.60
68485;DHT22;55472;50.060;21.960;2023-08-07T04:46:31;15.10;91.90
68485;DHT22;55472;50.060;21.960;2023-08-07T04:48:59;15.10;92.00
68485;DHT22;55472;50.060;21.960;2023-08-07T04:51:26;15.20;92.30
68485;DHT22;55472;50.060;21.960;2023-08-07T04:53:54;15.20;92.10
68485;DHT22;55472;50.060;21.960;2023-08-07T04:56:22;15.20;92.30
68485;DHT22;55472;50.060;21.960;2023-08-07T04:58:48;15.20;92.60
68485;DHT22;55472;50.060;21.960;2023-08-07T05:01:14;15.30;92.70
68485;DHT22;55472;50.060;21.960;2023-08-07T05:03:41;15.30;92.50
68485;DHT22;55472;50.060;21.960;2023-08-07T05:06:07;15.40;92.40
68485;DHT22;55472;50.060;21.960;2023-08-07T05:08:33;15.40;92.40
68485;DHT22;55472;50.060;21.960;2023-08-07T05:10:59;15.50;91.90
68485;DHT22;55472;50.060;21.960;2023-08-07T05:13:25;15.50;91.70
68485;DHT22;55472;50.060;21.960;2023-08-07T05:15:52;15.60;91.80
68485;DHT22;55472;50.060;21.960;2023-08-07T05:18:18;15.60;91.70
68485;DHT22;55472;50.060;21.960;2023-08-07T05:20:44;15.70;91.40
68485;DHT22;55472;50.060;21.960;2023-08-07T05:23:10;15.80;91.00
68485;DHT22;55472;50.060;21.960;2023-08-07T05:25:37;15.90;90.70
68485;DHT22;55472;50.060;21.960;2023-08-07T05:28:03;16.00;90.60
68485;DHT22;55472;50.060;21.960;2023-08-07T05:30:31;16.10;90.60
68485;DHT22;55472;50.060;21.960;2023-08-07T05:32:57;16.20;90.10
68485;DHT22;55472;50.060;21.960;2023-08-07T05:35:23;16.30;90.10
68485;DHT22;55472;50.060;21.960;2023-08-07T05:37:49;16.30;89.90
68485;DHT22;55472;50.060;21.960;2023-08-07T05:40:16;16.40;89.10
68485;DHT22;55472;50.060;21.960;2023-08-07T05:42:42;16.50;88.80
68485;DHT22;55472;50.060;21.960;2023-08-07T05:45:09;16.50;88.40
68485;DHT22;55472;50.060;21.960;2023-08-07T05:47:36;16.50;87.80
68485;DHT22;55472;50.060;21.960;2023-08-07T05:50:03;16.60;88.00
68485;DHT22;55472;50.060;21.960;2023-08-07T05:52:29;16.60;87.90
68485;DHT22;55472;50.060;21.960;2023-08-07T05:54:55;16.60;87.80
68485;DHT22;55472;50.060;21.960;2023-08-07T05:57:21;16.60;87.20
68485;DHT22;55472;50.060;21.960;2023-08-07T05:59:47;16.60;87.00
68485;DHT22;55472;50.060;21.960;2023-08-07T06:02:13;16.60;87.00
68485;DHT22;55472;50.060;21.960;2023-08-07T06:04:40;16.70;86.80
68485;DHT22;55472;50.060;21.960;2023-08-07T06:07:06;16.70;87.30
68485;DHT22;55472;50.060;21.960;2023-08-07T06:09:33;16.70;87.00
68485;DHT22;55472;50.060;21.960;2023-08-07T06:11:59;16.70;85.70
68485;DHT22;55472;50.060;21.960;2023-08-07T06:14:25;16.80;86.50
68485;DHT22;55472;50.060;21.960;2023-08-07T06:16:52;16.80;86.30
68485;DHT22;55472;50.060;21.960;2023-08-07T06:19:18;16.80;86.10
68485;DHT22;55472;50.060;21.960;2023-08-07T06:21:45;16.90;86.40
68485;DHT22;55472;50.060;21.960;2023-08-07T06:24:11;17.00;85.90
68485;DHT22;55472;50.060;21.960;2023-08-07T06:26:38;17.00;85.90
68485;DHT22;55472;50.060;21.960;2023-08-07T06:29:04;17.10;85.20
68485;DHT22;55472;50.060;21.960;2023-08-07T06:31:30;17.10;85.10
68485;DHT22;55472;50.060;21.960;2023-08-07T06:33:56;17.20;84.90
68485;DHT22;55472;50.060;21.960;2023-08-07T06:36:22;17.30;84.90
68485;DHT22;55472;50.060;21.960;2023-08-07T06:38:48;17.40;84.70
68485;DHT22;55472;50.060;21.960;2023-08-07T06:41:15;17.50;84.20
68485;DHT22;55472;50.060;21.960;2023-08-07T06:43:41;17.60;82.80
68485;DHT22;55472;50.060;21.960;2023-08-07T06:46:07;17.70;82.40
68485;DHT22;55472;50.060;21.960;2023-08-07T06:48:33;17.70;81.70
68485;DHT22;55472;50.060;21.960;2023-08-07T06:50:59;17.80;81.00
68485;DHT22;55472;50.060;21.960;2023-08-07T06:53:26;17.90;81.10
68485;DHT22;55472;50.060;21.960;2023-08-07T06:55:52;18.00;80.80
68485;DHT22;55472;50.060;21.960;2023-08-07T06:58:18;18.10;80.50
68485;DHT22;55472;50.060;21.960;2023-08-07T07:00:44;18.10;80.40
68485;DHT22;55472;50.060;21.960;2023-08-07T07:03:11;18.20;80.10
68485;DHT22;55472;50.060;21.960;2023-08-07T07:05:38;18.30;79.40
68485;DHT22;55472;50.060;21.960;2023-08-07T07:08:04;18.30;78.70
68485;DHT22;55472;50.060;21.960;2023-08-07T07:10:31;18.40;78.60
68485;DHT22;55472;50.060;21.960;2023-08-07T07:12:57;18.40;77.80
68485;DHT22;55472;50.060;21.960;2023-08-07T07:15:23;18.50;77.70
68485;DHT22;55472;50.060;21.960;2023-08-07T07:17:50;18.70;77.20
68485;DHT22;55472;50.060;21.960;2023-08-07T07:20:16;18.70;76.60
68485;DHT22;55472;50.060;21.960;2023-08-07T07:22:42;18.80;76.50
68485;DHT22;55472;50.060;21.960;2023-08-07T07:25:08;18.90;76.40
68485;DHT22;55472;50.060;21.960;2023-08-07T07:27:35;19.00;76.90
68485;DHT22;55472;50.060;21.960;2023-08-07T07:30:01;19.00;75.30
68485;DHT22;55472;50.060;21.960;2023-08-07T07:32:29;19.10;74.50
68485;DHT22;55472;50.060;21.960;2023-08-07T07:34:55;19.20;74.00
68485;DHT22;55472;50.060;21.960;2023-08-07T07:37:21;19.30;74.40
68485;DHT22;55472;50.060;21.960;2023-08-07T07:39:47;19.30;72.70
68485;DHT22;55472;50.060;21.960;2023-08-07T07:42:14;19.40;72.80
68485;DHT22;55472;50.060;21.960;2023-08-07T07:44:39;19.50;72.70
68485;DHT22;55472;50.060;21.960;2023-08-07T07:47:07;19.60;72.00
68485;DHT22;55472;50.060;21.960;2023-08-07T07:49:33;19.70;72.30
68485;DHT22;55472;50.060;21.960;2023-08-07T07:52:00;19.80;72.00
68485;DHT22;55472;50.060;21.960;2023-08-07T07:54:28;19.80;70.80
68485;DHT22;55472;50.060;21.960;2023-08-07T07:56:55;19.80;71.20
68485;DHT22;55472;50.060;21.960;2023-08-07T07:59:21;19.80;71.40
68485;DHT22;55472;50.060;21.960;2023-08-07T08:01:47;19.80;71.90
68485;DHT22;55472;50.060;21.960;2023-08-07T08:04:14;20.00;71.20
68485;DHT22;55472;50.060;21.960;2023-08-07T08:06:40;20.00;70.70
68485;DHT22;55472;50.060;21.960;2023-08-07T08:09:07;20.10;70.00
68485;DHT22;55472;50.060;21.960;2023-08-07T08:11:35;20.10;70.70
68485;DHT22;55472;50.060;21.960;2023-08-07T08:14:01;20.20;70.90
68485;DHT22;55472;50.060;21.960;2023-08-07T08:16:27;20.30;70.30
68485;DHT22;55472;50.060;21.960;2023-08-07T08:18:53;20.40;70.10
68485;DHT22;55472;50.060;21.960;2023-08-07T08:21:20;20.40;70.20
68485;DHT22;55472;50.060;21.960;2023-08-07T08:23:46;20.50;69.60
68485;DHT22;55472;50.060;21.960;2023-08-07T08:26:12;20.40;68.30
68485;DHT22;55472;50.060;21.960;2023-08-07T08:28:38;20.50;67.80
68485;DHT22;55472;50.060;21.960;2023-08-07T08:31:05;20.70;67.90
68485;DHT22;55472;50.060;21.960;2023-08-07T08:33:31;20.80;67.10
68485;DHT22;55472;50.060;21.960;2023-08-07T08:35:58;21.00;66.80
68485;DHT22;55472;50.060;21.960;2023-08-07T08:38:24;21.20;66.80
68485;DHT22;55472;50.060;21.960;2023-08-07T08:40:52;21.30;66.20
68485;DHT22;55472;50.060;21.960;2023-08-07T08:43:19;21.40;65.10
68485;DHT22;55472;50.060;21.960;2023-08-07T08:45:46;21.40;65.50
68485;DHT22;55472;50.060;21.960;2023-08-07T08:48:17;21.30;65.70
68485;DHT22;55472;50.060;21.960;2023-08-07T08:50:49;21.40;65.50
68485;DHT22;55472;50.060;21.960;2023-08-07T08:53:16;21.30;66.00
68485;DHT22;55472;50.060;21.960;2023-08-07T08:55:43;21.40;65.90
68485;DHT22;55472;50.060;21.960;2023-08-07T08:58:13;21.40;64.70
68485;DHT22;55472;50.060;21.960;2023-08-07T09:00:41;21.40;64.10
68485;DHT22;55472;50.060;21.960;2023-08-07T09:03:08;21.40;63.30
68485;DHT22;55472;50.060;21.960;2023-08-07T09:05:35;21.20;63.30
68485;DHT22;55472;50.060;21.960;2023-08-07T09:08:02;21.10;64.00
68485;DHT22;55472;50.060;21.960;2023-08-07T09:10:31;20.90;65.10
68485;DHT22;55472;50.060;21.960;2023-08-07T09:13:01;20.80;64.90
68485;DHT22;55472;50.060;21.960;2023-08-07T09:15:34;20.70;65.50
68485;DHT22;55472;50.060;21.960;2023-08-07T09:18:05;20.50;66.40
68485;DHT22;55472;50.060;21.960;2023-08-07T09:20:35;20.40;67.10
68485;DHT22;55472;50.060;21.960;2023-08-07T09:23:02;20.40;67.50
68485;DHT22;55472;50.060;21.960;2023-08-07T09:25:32;20.30;67.90
68485;DHT22;55472;50.060;21.960;2023-08-07T09:28:03;20.20;68.60
68485;DHT22;55472;50.060;21.960;2023-08-07T09:30:31;20.10;70.00
68485;DHT22;55472;50.060;21.960;2023-08-07T09:33:01;20.10;71.40
68485;DHT22;55472;50.060;21.960;2023-08-07T09:35:29;20.00;72.00
68485;DHT22;55472;50.060;21.960;2023-08-07T09:37:57;19.90;72.50
68485;DHT22;55472;50.060;21.960;2023-08-07T09:40:27;19.80;72.60
68485;DHT22;55472;50.060;21.960;2023-08-07T09:42:54;19.80;71.90
68485;DHT22;55472;50.060;21.960;2023-08-07T09:45:22;19.70;72.60
68485;DHT22;55472;50.060;21.960;2023-08-07T09:48:03;19.80;72.20
68485;DHT22;55472;50.060;21.960;2023-08-07T09:50:30;19.80;71.80
68485;DHT22;55472;50.060;21.960;2023-08-07T09:52:57;20.00;69.80
68485;DHT22;55472;50.060;21.960;2023-08-07T09:55:25;20.00;69.40
68485;DHT22;55472;50.060;21.960;2023-08-07T09:57:51;20.20;69.00
68485;DHT22;55472;50.060;21.960;2023-08-07T10:00:18;20.30;69.40
68485;DHT22;55472;50.060;21.960;2023-08-07T10:02:49;20.40;68.80
68485;DHT22;55472;50.060;21.960;2023-08-07T10:05:17;20.60;68.00
68485;DHT22;55472;50.060;21.960;2023-08-07T10:07:43;20.70;66.50
68485;DHT22;55472;50.060;21.960;2023-08-07T10:10:10;20.80;66.60
68485;DHT22;55472;50.060;21.960;2023-08-07T10:12:38;20.90;65.70
68485;DHT22;55472;50.060;21.960;2023-08-07T10:15:05;21.10;64.40
68485;DHT22;55472;50.060;21.960;2023-08-07T10:17:32;21.10;64.50
68485;DHT22;55472;50.060;21.960;2023-08-07T10:19:58;21.20;63.10
68485;DHT22;55472;50.060;21.960;2023-08-07T10:22:25;21.20;63.40
68485;DHT22;55472;50.060;21.960;2023-08-07T10:24:54;21.40;63.20
68485;DHT22;55472;50.060;21.960;2023-08-07T10:27:23;21.60;62.20
68485;DHT22;55472;50.060;21.960;2023-08-07T10:29:51;21.90;61.80
68485;DHT22;55472;50.060;21.960;2023-08-07T10:32:20;22.30;62.00
68485;DHT22;55472;50.060;21.960;2023-08-07T10:34:50;22.40;60.60
68485;DHT22;55472;50.060;21.960;2023-08-07T10:37:38;22.30;60.90
68485;DHT22;55472;50.060;21.960;2023-08-07T10:40:07;22.10;61.20
68485;DHT22;55472;50.060;21.960;2023-08-07T10:42:58;21.90;61.70
68485;DHT22;55472;50.060;21.960;2023-08-07T10:45:28;21.60;62.20
68485;DHT22;55472;50.060;21.960;2023-08-07T10:48:08;21.30;63.90
68485;DHT22;55472;50.060;21.960;2023-08-07T10:50:50;21.10;65.70
68485;DHT22;55472;50.060;21.960;2023-08-07T10:53:40;20.90;67.60
68485;DHT22;55472;50.060;21.960;2023-08-07T10:56:33;20.60;68.80
68485;DHT22;55472;50.060;21.960;2023-08-07T10:59:11;20.40;72.60
68485;DHT22;55472;50.060;21.960;2023-08-07T11:04:14;20.20;76.10
68485;DHT22;55472;50.060;21.960;2023-08-07T11:06:43;20.20;77.40
68485;DHT22;55472;50.060;21.960;2023-08-07T11:09:10;20.20;77.80
68485;DHT22;55472;50.060;21.960;2023-08-07T11:11:45;20.20;77.30
68485;DHT22;55472;50.060;21.960;2023-08-07T11:14:15;20.20;77.10
68485;DHT22;55472;50.060;21.960;2023-08-07T11:16:43;20.20;77.50
68485;DHT22;55472;50.060;21.960;2023-08-07T11:19:09;20.30;79.00
68485;DHT22;55472;50.060;21.960;2023-08-07T11:21:37;20.40;78.30
68485;DHT22;55472;50.060;21.960;2023-08-07T11:24:03;20.60;78.30
68485;DHT22;55472;50.060;21.960;2023-08-07T11:26:30;20.80;78.30
68485;DHT22;55472;50.060;21.960;2023-08-07T11:28:56;21.10;76.30
68485;DHT22;55472;50.060;21.960;2023-08-07T11:31:23;21.30;74.90
68485;DHT22;55472;50.060;21.960;2023-08-07T11:33:51;21.40;72.70
68485;DHT22;55472;50.060;21.960;2023-08-07T11:36:18;21.40;71.80
68485;DHT22;55472;50.060;21.960;2023-08-07T11:38:44;21.50;72.20
68485;DHT22;55472;50.060;21.960;2023-08-07T11:41:15;21.50;72.00
68485;DHT22;55472;50.060;21.960;2023-08-07T11:43:42;21.50;71.90
68485;DHT22;55472;50.060;21.960;2023-08-07T11:46:11;21.70;72.70
68485;DHT22;55472;50.060;21.960;2023-08-07T11:48:40;21.80;74.10
68485;DHT22;55472;50.060;21.960;2023-08-07T11:51:07;22.00;72.60
68485;DHT22;55472;50.060;21.960;2023-08-07T11:53:38;22.10;71.50
68485;DHT22;55472;50.060;21.960;2023-08-07T11:56:10;22.10;71.20
68485;DHT22;55472;50.060;21.960;2023-08-07T11:58:44;22.00;70.50
68485;DHT22;55472;50.060;21.960;2023-08-07T12:03:56;21.70;70.00
68485;DHT22;55472;50.060;21.960;2023-08-07T12:06:32;21.40;70.60
68485;DHT22;55472;50.060;21.960;2023-08-07T12:08:59;21.20;71.80
68485;DHT22;55472;50.060;21.960;2023-08-07T12:11:25;21.00;72.30
68485;DHT22;55472;50.060;21.960;2023-08-07T12:13:51;20.80;72.80
68485;DHT22;55472;50.060;21.960;2023-08-07T12:16:18;20.70;74.10
68485;DHT22;55472;50.060;21.960;2023-08-07T12:18:49;20.50;74.90
68485;DHT22;55472;50.060;21.960;2023-08-07T12:21:26;20.40;76.70
68485;DHT22;55472;50.060;21.960;2023-08-07T12:23:56;20.30;77.70
68485;DHT22;55472;50.060;21.960;2023-08-07T12:26:23;20.20;78.10
68485;DHT22;55472;50.060;21.960;2023-08-07T12:28:49;20.10;78.80
68485;DHT22;55472;50.060;21.960;2023-08-07T12:31:15;19.90;80.30
68485;DHT22;55472;50.060;21.960;2023-08-07T12:33:43;19.80;81.40
68485;DHT22;55472;50.060;21.960;2023-08-07T12:36:09;19.70;82.70
68485;DHT22;55472;50.060;21.960;2023-08-07T12:38:36;19.60;83.70
68485;DHT22;55472;50.060;21.960;2023-08-07T12:41:02;19.60;84.40
68485;DHT22;55472;50.060;21.960;2023-08-07T12:43:29;19.50;84.40
68485;DHT22;55472;50.060;21.960;2023-08-07T12:45:55;19.50;83.20
68485;DHT22;55472;50.060;21.960;2023-08-07T12:48:21;19.40;82.60
68485;DHT22;55472;50.060;21.960;2023-08-07T12:50:47;19.30;81.50
68485;DHT22;55472;50.060;21.960;2023-08-07T12:53:13;19.20;82.60
68485;DHT22;55472;50.060;21.960;2023-08-07T12:55:40;19.10;82.50
68485;DHT22;55472;50.060;21.960;2023-08-07T12:58:06;19.10;81.20
68485;DHT22;55472;50.060;21.960;2023-08-07T13:00:32;19.00;82.30
68485;DHT22;55472;50.060;21.960;2023-08-07T13:02:58;19.00;82.80
68485;DHT22;55472;50.060;21.960;2023-08-07T13:05:28;18.90;83.20
68485;DHT22;55472;50.060;21.960;2023-08-07T13:07:56;18.90;83.50
68485;DHT22;55472;50.060;21.960;2023-08-07T13:10:24;18.80;82.50
68485;DHT22;55472;50.060;21.960;2023-08-07T13:12:53;18.70;83.60
68485;DHT22;55472;50.060;21.960;2023-08-07T13:15:20;18.70;84.20
68485;DHT22;55472;50.060;21.960;2023-08-07T13:17:46;18.70;83.80
68485;DHT22;55472;50.060;21.960;2023-08-07T13:20:13;18.70;83.70
68485;DHT22;55472;50.060;21.960;2023-08-07T13:22:41;18.70;84.20
68485;DHT22;55472;50.060;21.960;2023-08-07T13:25:11;18.70;84.80
68485;DHT22;55472;50.060;21.960;2023-08-07T13:27:38;18.70;85.10
68485;DHT22;55472;50.060;21.960;2023-08-07T13:30:06;18.70;86.00
68485;DHT22;55472;50.060;21.960;2023-08-07T13:32:32;18.70;85.90
68485;DHT22;55472;50.060;21.960;2023-08-07T13:34:59;18.70;86.40
68485;DHT22;55472;50.060;21.960;2023-08-07T13:37:25;18.80;84.50
68485;DHT22;55472;50.060;21.960;2023-08-07T13:39:52;18.70;83.70
68485;DHT22;55472;50.060;21.960;2023-08-07T13:42:19;18.60;83.20
68485;DHT22;55472;50.060;21.960;2023-08-07T13:44:46;18.50;85.40
68485;DHT22;55472;50.060;21.960;2023-08-07T13:47:12;18.40;86.00
68485;DHT22;55472;50.060;21.960;2023-08-07T13:49:39;18.40;85.90
68485;DHT22;55472;50.060;21.960;2023-08-07T13:52:05;18.30;86.40
68485;DHT22;55472;50.060;21.960;2023-08-07T13:54:32;18.20;87.60
68485;DHT22;55472;50.060;21.960;2023-08-07T13:56:58;18.20;89.20
68485;DHT22;55472;50.060;21.960;2023-08-07T13:59:24;18.20;88.80
68485;DHT22;55472;50.060;21.960;2023-08-07T14:01:50;18.10;88.60
68485;DHT22;55472;50.060;21.960;2023-08-07T14:04:18;18.00;88.90
68485;DHT22;55472;50.060;21.960;2023-08-07T14:06:44;17.90;89.20
68485;DHT22;55472;50.060;21.960;2023-08-07T14:09:10;17.90;89.50
68485;DHT22;55472;50.060;21.960;2023-08-07T14:11:37;17.80;89.80
68485;DHT22;55472;50.060;21.960;2023-08-07T14:14:06;17.80;89.10
68485;DHT22;55472;50.060;21.960;2023-08-07T14:16:32;17.80;90.00
68485;DHT22;55472;50.060;21.960;2023-08-07T14:18:59;17.80;89.70
68485;DHT22;55472;50.060;21.960;2023-08-07T14:21:25;17.80;89.60
68485;DHT22;55472;50.060;21.960;2023-08-07T14:23:51;17.80;88.50
68485;DHT22;55472;50.060;21.960;2023-08-07T14:26:17;17.90;88.30
68485;DHT22;55472;50.060;21.960;2023-08-07T14:28:44;17.90;88.70
68485;DHT22;55472;50.060;21.960;2023-08-07T14:31:10;17.90;89.00
68485;DHT22;55472;50.060;21.960;2023-08-07T14:33:37;18.00;89.20
68485;DHT22;55472;50.060;21.960;2023-08-07T14:36:03;18.00;89.10
68485;DHT22;55472;50.060;21.960;2023-08-07T14:38:29;18.00;89.80
68485;DHT22;55472;50.060;21.960;2023-08-07T14:40:56;18.00;89.30
68485;DHT22;55472;50.060;21.960;2023-08-07T14:43:25;17.90;87.90
68485;DHT22;55472;50.060;21.960;2023-08-07T14:45:55;17.80;86.40
68485;DHT22;55472;50.060;21.960;2023-08-07T14:48:21;17.70;85.60
68485;DHT22;55472;50.060;21.960;2023-08-07T14:50:47;17.60;85.20
68485;DHT22;55472;50.060;21.960;2023-08-07T14:53:13;17.50;85.40
68485;DHT22;55472;50.060;21.960;2023-08-07T14:55:39;17.50;85.50
68485;DHT22;55472;50.060;21.960;2023-08-07T14:58:07;17.50;86.50
68485;DHT22;55472;50.060;21.960;2023-08-07T15:00:35;17.40;86.30
68485;DHT22;55472;50.060;21.960;2023-08-07T15:03:01;17.40;86.50
68485;DHT22;55472;50.060;21.960;2023-08-07T15:05:28;17.40;87.60
68485;DHT22;55472;50.060;21.960;2023-08-07T15:07:54;17.40;87.80
68485;DHT22;55472;50.060;21.960;2023-08-07T15:10:20;17.40;88.50
68485;DHT22;55472;50.060;21.960;2023-08-07T15:12:47;17.50;88.60
68485;DHT22;55472;50.060;21.960;2023-08-07T15:15:14;17.40;88.70
68485;DHT22;55472;50.060;21.960;2023-08-07T15:17:40;17.50;88.40
68485;DHT22;55472;50.060;21.960;2023-08-07T15:20:06;17.50;88.70
68485;DHT22;55472;50.060;21.960;2023-08-07T15:22:33;17.40;88.00
68485;DHT22;55472;50.060;21.960;2023-08-07T15:25:00;17.40;87.80
68485;DHT22;55472;50.060;21.960;2023-08-07T15:27:26;17.40;88.30